createdAt,value
2023-01-17T00:02:23.407Z,10.38
2023-01-17T00:05:11.245Z,9.32
2023-01-17T00:07:58.250Z,8.08
2023-01-17T00:10:30.021Z,7.20
2023-01-17T00:13:02.635Z,6.69
2023-01-17T00:15:31.780Z,7.90
2023-01-17T00:18:00.323Z,10.24
2023-01-17T00:20:50.223Z,10.23
2023-01-17T00:23:40.241Z,8.81
2023-01-17T00:26:16.916Z,7.74
2023-01-17T00:28:46.398Z,7.05
2023-01-17T00:31:16.830Z,7.78
2023-01-17T00:33:45.769Z,10.16
2023-01-17T00:36:14.647Z,10.56
2023-01-17T00:38:43.941Z,9.34
2023-01-17T00:41:14.514Z,8.30
2023-01-17T00:44:01.795Z,7.54
2023-01-17T00:46:48.913Z,7.02
2023-01-17T00:49:36.122Z,8.79
2023-01-17T00:52:23.855Z,11.04
2023-01-17T00:55:11.259Z,10.20
2023-01-17T00:57:58.481Z,8.84
2023-01-17T01:00:46.001Z,7.93
2023-01-17T01:03:33.413Z,9.45
2023-01-17T01:06:23.902Z,10.52
2023-01-17T01:09:11.339Z,9.21
2023-01-17T01:11:58.470Z,8.06
2023-01-17T01:14:45.704Z,7.24
2023-01-17T01:17:32.864Z,7.68
2023-01-17T01:20:20.112Z,10.32
2023-01-17T01:23:07.579Z,10.97
2023-01-17T01:25:55.159Z,9.56
2023-01-17T01:28:42.666Z,8.40
2023-01-17T01:31:30.011Z,7.58
2023-01-17T01:33:58.505Z,7.29
2023-01-17T01:36:26.968Z,9.23
2023-01-17T01:38:57.029Z,11.08
2023-01-17T01:41:26.200Z,10.27
2023-01-17T01:43:56.249Z,9.00
2023-01-17T01:46:30.673Z,8.01
2023-01-17T01:49:11.445Z,7.27
2023-01-17T01:51:43.807Z,7.88
2023-01-17T01:54:20.031Z,10.26
2023-01-17T01:56:50.991Z,10.63
2023-01-17T01:59:22.946Z,9.31
2023-01-17T02:01:55.460Z,8.19
2023-01-17T02:04:26.651Z,7.35
2023-01-17T02:07:21.894Z,6.83
2023-01-17T02:09:50.429Z,8.67
2023-01-17T02:12:21.527Z,10.69
2023-01-17T02:14:50.490Z,10.10
2023-01-17T02:17:49.046Z,8.80
2023-01-17T02:20:29.428Z,7.64
2023-01-17T02:23:23.395Z,7.00
2023-01-17T02:26:01.176Z,8.72
2023-01-17T02:29:07.376Z,10.87
2023-01-17T02:31:39.734Z,9.87
2023-01-17T02:34:22.960Z,8.62
2023-01-17T02:37:01.479Z,7.64
2023-01-17T02:39:37.722Z,8.34
2023-01-17T02:42:12.073Z,10.56
2023-01-17T02:44:44.633Z,10.24
2023-01-17T02:47:22.398Z,8.92
2023-01-17T02:49:56.648Z,7.87
2023-01-17T02:52:51.233Z,7.13
2023-01-17T02:55:31.786Z,8.08
2023-01-17T02:58:03.251Z,10.51
2023-01-17T03:00:56.818Z,10.47
2023-01-17T03:03:28.478Z,8.91
2023-01-17T03:06:12.096Z,7.87
2023-01-17T03:08:43.681Z,7.03
2023-01-17T03:11:13.634Z,7.26
2023-01-17T03:13:42.516Z,9.51
2023-01-17T03:16:19.135Z,10.65
2023-01-17T03:18:47.726Z,9.35
2023-01-17T03:21:16.929Z,8.13
2023-01-17T03:23:45.523Z,7.23
2023-01-17T03:26:14.002Z,6.94
2023-01-17T03:28:42.756Z,8.85
2023-01-17T03:31:15.905Z,10.57
2023-01-17T03:33:44.362Z,9.68
2023-01-17T03:36:13.017Z,8.41
2023-01-17T03:38:41.697Z,7.49
2023-01-17T03:41:10.187Z,6.95
2023-01-17T03:43:39.085Z,8.46
2023-01-17T03:46:19.166Z,10.60
2023-01-17T03:48:48.681Z,10.16
2023-01-17T03:51:17.942Z,8.85
2023-01-17T03:53:47.356Z,7.84
2023-01-17T03:56:16.068Z,7.09
2023-01-17T03:58:44.514Z,7.13
2023-01-17T04:01:13.786Z,9.25
2023-01-17T04:03:42.508Z,10.64
2023-01-17T04:06:11.076Z,9.60
2023-01-17T04:08:39.719Z,8.37
2023-01-17T04:11:08.220Z,7.49
2023-01-17T04:13:36.681Z,6.87
2023-01-17T04:16:05.835Z,8.03
2023-01-17T04:18:34.363Z,10.15
2023-01-17T04:21:02.881Z,9.92
2023-01-17T04:23:32.381Z,8.69
2023-01-17T04:26:01.193Z,7.70
2023-01-17T04:28:32.015Z,6.96
2023-01-17T04:31:00.968Z,7.46
2023-01-17T04:33:30.081Z,9.73
2023-01-17T04:35:58.527Z,10.25
2023-01-17T04:38:27.273Z,8.98
2023-01-17T04:40:55.777Z,7.89
2023-01-17T04:43:24.379Z,7.08
2023-01-17T04:45:57.651Z,6.49
2023-01-17T04:48:27.467Z,7.61
2023-01-17T04:51:01.591Z,9.84
2023-01-17T04:53:30.129Z,9.66
2023-01-17T04:55:58.945Z,8.40
2023-01-17T04:58:27.985Z,7.44
2023-01-17T05:00:56.467Z,6.74
2023-01-17T05:03:25.456Z,6.37
2023-01-17T05:05:54.014Z,8.06
2023-01-17T05:08:22.504Z,10.23
2023-01-17T05:10:50.991Z,9.93
2023-01-17T05:13:19.761Z,8.64
2023-01-17T05:15:48.351Z,7.65
2023-01-17T05:18:18.948Z,6.93
2023-01-17T05:20:47.576Z,6.40
2023-01-17T05:23:16.074Z,7.39
2023-01-17T05:25:45.324Z,9.62
2023-01-17T05:28:14.398Z,9.75
2023-01-17T05:30:42.957Z,8.50
2023-01-17T05:33:11.527Z,7.52
2023-01-17T05:35:40.042Z,6.83
2023-01-17T05:38:08.495Z,6.47
2023-01-17T05:40:37.070Z,8.08
2023-01-17T05:43:05.804Z,10.05
2023-01-17T05:45:35.228Z,9.47
2023-01-17T05:48:04.792Z,8.28
2023-01-17T05:50:38.643Z,7.38
2023-01-17T05:53:13.065Z,6.78
2023-01-17T05:55:43.516Z,8.07
2023-01-17T05:58:17.606Z,9.92
2023-01-17T06:00:47.159Z,9.26
2023-01-17T06:03:28.516Z,8.16
2023-01-17T06:05:57.181Z,7.27
2023-01-17T06:08:25.708Z,6.76
2023-01-17T06:10:54.118Z,8.06
2023-01-17T06:13:23.463Z,9.47
2023-01-17T06:15:52.140Z,8.67
2023-01-17T06:18:20.881Z,7.71
2023-01-17T06:20:57.129Z,6.99
2023-01-17T06:23:25.935Z,7.31
2023-01-17T06:25:54.487Z,9.30
2023-01-17T06:28:24.105Z,9.28
2023-01-17T06:30:52.660Z,8.21
2023-01-17T06:33:21.189Z,7.36
2023-01-17T06:35:51.229Z,6.83
2023-01-17T06:38:20.038Z,8.09
2023-01-17T06:40:48.630Z,10.05
2023-01-17T06:43:17.170Z,9.46
2023-01-17T06:45:45.678Z,8.32
2023-01-17T06:48:14.714Z,7.50
2023-01-17T06:50:44.142Z,6.90
2023-01-17T06:53:12.565Z,6.72
2023-01-17T06:55:41.691Z,8.60
2023-01-17T06:58:10.502Z,9.89
2023-01-17T07:00:40.892Z,8.98
2023-01-17T07:03:22.527Z,7.97
2023-01-17T07:05:51.593Z,7.21
2023-01-17T07:08:20.898Z,6.70
2023-01-17T07:10:49.573Z,7.21
2023-01-17T07:13:18.101Z,9.52
2023-01-17T07:15:46.732Z,9.85
2023-01-17T07:18:16.484Z,8.76
2023-01-17T07:20:45.029Z,7.86
2023-01-17T07:23:14.276Z,7.20
2023-01-17T07:25:42.942Z,6.71
2023-01-17T07:28:11.380Z,6.42
2023-01-17T07:30:39.930Z,7.87
2023-01-17T07:33:09.572Z,9.96
2023-01-17T07:35:38.956Z,9.46
2023-01-17T07:38:11.775Z,8.43
2023-01-17T07:40:42.436Z,7.63
2023-01-17T07:43:14.448Z,7.06
2023-01-17T07:45:51.449Z,6.85
2023-01-17T07:48:22.366Z,8.76
2023-01-17T07:50:58.403Z,10.01
2023-01-17T07:53:30.041Z,8.97
2023-01-17T07:56:04.982Z,7.99
2023-01-17T07:58:34.723Z,7.26
2023-01-17T08:01:09.078Z,6.78
2023-01-17T08:03:42.172Z,7.76
2023-01-17T08:06:22.639Z,9.77
2023-01-17T08:08:51.508Z,9.30
2023-01-17T08:11:19.967Z,8.27
2023-01-17T08:13:48.781Z,7.55
2023-01-17T08:16:17.271Z,7.01
2023-01-17T08:18:45.793Z,7.14
2023-01-17T08:21:17.073Z,9.09
2023-01-17T08:23:49.775Z,9.90
2023-01-17T08:26:24.103Z,8.88
2023-01-17T08:29:02.267Z,7.99
2023-01-17T08:31:34.177Z,7.35
2023-01-17T08:34:02.826Z,7.00
2023-01-17T08:36:31.565Z,8.43
2023-01-17T08:39:00.360Z,9.87
2023-01-17T08:41:28.989Z,9.07
2023-01-17T08:43:58.007Z,8.20
2023-01-17T08:46:27.271Z,7.54
2023-01-17T08:48:59.111Z,7.30
2023-01-17T08:51:28.921Z,9.23
2023-01-17T08:53:57.583Z,10.20
2023-01-17T08:56:27.175Z,9.22
2023-01-17T08:58:55.704Z,8.40
2023-01-17T09:01:24.537Z,7.83
2023-01-17T09:03:53.159Z,7.43
2023-01-17T09:06:22.425Z,7.96
2023-01-17T09:08:54.951Z,9.90
2023-01-17T09:11:23.527Z,9.68
2023-01-17T09:13:52.007Z,8.87
2023-01-17T09:16:20.687Z,8.22
2023-01-17T09:18:49.234Z,7.79
2023-01-17T09:21:18.972Z,7.80
2023-01-17T09:23:47.413Z,9.74
2023-01-17T09:26:25.626Z,10.22
2023-01-17T09:28:55.348Z,9.33
2023-01-17T09:31:25.029Z,8.61
2023-01-17T09:33:55.498Z,8.11
2023-01-17T09:36:27.193Z,7.82
2023-01-17T09:38:58.409Z,9.29
2023-01-17T09:41:31.347Z,10.82
2023-01-17T09:44:17.875Z,10.09
2023-01-17T09:46:49.284Z,9.18
2023-01-17T09:49:36.243Z,8.61
2023-01-17T09:52:07.465Z,8.15
2023-01-17T09:54:41.030Z,7.81
2023-01-17T09:57:35.070Z,7.97
2023-01-17T10:00:34.449Z,10.44
2023-01-17T10:03:28.231Z,10.40
2023-01-17T10:06:02.956Z,9.36
2023-01-17T10:09:00.914Z,8.73
2023-01-17T10:12:00.893Z,8.23
2023-01-17T10:15:07.435Z,7.87
2023-01-17T10:17:49.202Z,8.44
2023-01-17T10:20:53.963Z,10.63
2023-01-17T10:23:50.570Z,10.20
2023-01-17T10:26:26.408Z,9.30
2023-01-17T10:29:02.827Z,8.82
2023-01-17T10:31:42.778Z,8.60
2023-01-17T10:34:20.113Z,8.43
2023-01-17T10:37:03.854Z,8.25
2023-01-17T10:39:33.347Z,8.41
2023-01-17T10:42:18.526Z,10.08
2023-01-17T10:44:56.232Z,9.97
2023-01-17T10:47:28.082Z,9.40
2023-01-17T10:50:02.228Z,8.94
2023-01-17T10:52:43.635Z,8.59
2023-01-17T10:55:36.981Z,8.31
2023-01-17T10:58:08.992Z,8.18
2023-01-17T11:00:58.704Z,9.91
2023-01-17T11:03:28.846Z,10.70
2023-01-17T11:06:18.794Z,9.97
2023-01-17T11:08:58.830Z,9.23
2023-01-17T11:11:33.142Z,8.73
2023-01-17T11:14:18.871Z,8.37
2023-01-17T11:17:03.010Z,8.07
2023-01-17T11:19:35.655Z,7.84
2023-01-17T11:22:07.048Z,8.66
2023-01-17T11:24:39.225Z,10.78
2023-01-17T11:27:23.133Z,10.49
2023-01-17T11:30:20.182Z,9.61
2023-01-17T11:33:00.847Z,8.93
2023-01-17T11:35:30.716Z,8.50
2023-01-17T11:38:15.110Z,8.22
2023-01-17T11:40:45.769Z,7.97
2023-01-17T11:43:22.121Z,7.77
2023-01-17T11:46:06.207Z,7.60
2023-01-17T11:48:37.769Z,8.09
2023-01-17T11:51:31.536Z,10.23
2023-01-17T11:54:18.646Z,10.23
2023-01-17T11:56:47.120Z,9.67
2023-01-17T11:59:43.523Z,9.61
2023-01-17T12:02:43.116Z,9.96
2023-01-17T12:05:39.961Z,10.52
2023-01-17T12:08:53.400Z,10.93
2023-01-17T12:11:32.553Z,10.74
2023-01-17T12:14:19.771Z,10.58
2023-01-17T12:17:08.292Z,10.39
2023-01-17T12:20:06.304Z,10.40
2023-01-17T12:22:56.857Z,10.43
2023-01-17T12:25:47.531Z,10.26
2023-01-17T12:28:25.522Z,10.07
2023-01-17T12:31:35.282Z,9.87
2023-01-17T12:34:25.363Z,9.56
2023-01-17T12:37:08.717Z,9.31
2023-01-17T12:39:41.535Z,9.12
2023-01-17T12:42:19.056Z,8.92
2023-01-17T12:45:07.940Z,8.71
2023-01-17T12:47:45.656Z,8.51
2023-01-17T12:50:37.700Z,8.31
2023-01-17T12:53:26.679Z,8.13
2023-01-17T12:56:17.603Z,7.96
2023-01-17T12:58:55.110Z,7.83
2023-01-17T13:01:40.125Z,7.73
2023-01-17T13:04:46.871Z,7.63
2023-01-17T13:07:41.480Z,7.53
2023-01-17T13:10:29.742Z,7.59
2023-01-17T13:13:12.201Z,7.68
2023-01-17T13:15:43.273Z,7.66
2023-01-17T13:18:23.014Z,7.60
2023-01-17T13:21:25.571Z,7.52
2023-01-17T13:24:02.512Z,7.39
2023-01-17T13:26:40.519Z,7.27
2023-01-17T13:29:19.777Z,7.18
2023-01-17T13:31:51.305Z,7.16
2023-01-17T13:34:55.298Z,7.19
2023-01-17T13:37:26.814Z,7.11
2023-01-17T13:40:06.530Z,7.13
2023-01-17T13:43:00.585Z,7.17
2023-01-17T13:45:32.396Z,7.15
2023-01-17T13:48:14.990Z,7.09
2023-01-17T13:50:46.226Z,7.00
2023-01-17T13:53:39.654Z,6.91
2023-01-17T13:56:25.036Z,6.79
2023-01-17T13:58:58.165Z,6.69
2023-01-17T14:01:46.931Z,6.59
2023-01-17T14:04:15.483Z,6.50
2023-01-17T14:06:55.712Z,6.42
2023-01-17T14:09:45.546Z,6.33
2023-01-17T14:12:15.301Z,6.25
2023-01-17T14:14:48.155Z,6.19
2023-01-17T14:17:16.702Z,6.13
2023-01-17T14:19:51.213Z,6.08
2023-01-17T14:22:20.280Z,6.05
2023-01-17T14:25:19.951Z,6.05
2023-01-17T14:28:04.129Z,8.14
2023-01-17T14:30:32.581Z,10.06
2023-01-17T14:33:10.733Z,9.92
2023-01-17T14:35:52.675Z,9.81
2023-01-17T14:38:26.819Z,9.91
2023-01-17T14:41:00.246Z,10.02
2023-01-17T14:43:33.299Z,10.18
2023-01-17T14:46:08.376Z,10.22
2023-01-17T14:48:41.261Z,10.09
2023-01-17T14:51:19.044Z,9.74
2023-01-17T14:54:02.592Z,9.29
2023-01-17T14:56:35.366Z,8.84
2023-01-17T14:59:17.511Z,8.44
2023-01-17T15:02:08.259Z,8.04
2023-01-17T15:04:40.026Z,7.64
2023-01-17T15:07:16.601Z,7.31
2023-01-17T15:09:46.826Z,6.99
2023-01-17T15:12:15.447Z,6.72
2023-01-17T15:14:46.697Z,6.46
2023-01-17T15:17:26.654Z,6.21
2023-01-17T15:20:01.877Z,5.96
2023-01-17T15:22:31.030Z,5.73
2023-01-17T15:25:00.742Z,5.52
2023-01-17T15:27:29.560Z,5.32
2023-01-17T15:30:02.604Z,5.30
2023-01-17T15:32:32.120Z,7.17
2023-01-17T15:35:03.005Z,9.05
2023-01-17T15:37:42.216Z,8.39
2023-01-17T15:40:22.860Z,7.41
2023-01-17T15:42:56.898Z,6.74
2023-01-17T15:45:31.974Z,6.26
2023-01-17T15:48:39.417Z,5.88
2023-01-17T15:51:11.229Z,5.50
2023-01-17T15:53:43.073Z,5.23
2023-01-17T15:56:38.204Z,5.00
2023-01-17T15:59:30.380Z,4.75
2023-01-17T16:01:59.459Z,5.57
2023-01-17T16:04:37.648Z,8.03
2023-01-17T16:07:22.005Z,8.30
2023-01-17T16:09:50.552Z,7.21
2023-01-17T16:12:19.110Z,6.49
2023-01-17T16:15:06.262Z,5.96
2023-01-17T16:17:36.862Z,5.49
2023-01-17T16:20:16.262Z,5.17
2023-01-17T16:22:44.791Z,4.87
2023-01-17T16:25:19.274Z,4.63
2023-01-17T16:27:48.786Z,4.47
2023-01-17T16:30:22.182Z,6.03
2023-01-17T16:32:50.792Z,7.91
2023-01-17T16:35:24.811Z,7.35
2023-01-17T16:37:56.224Z,6.45
2023-01-17T16:40:27.785Z,5.83
2023-01-17T16:42:57.439Z,5.36
2023-01-17T16:45:26.467Z,5.00
2023-01-17T16:47:54.996Z,4.71
2023-01-17T16:50:25.264Z,4.45
2023-01-17T16:52:56.517Z,4.30
2023-01-17T16:55:26.096Z,5.89
2023-01-17T16:57:58.388Z,8.24
2023-01-17T17:00:27.183Z,8.10
2023-01-17T17:02:55.649Z,7.04
2023-01-17T17:05:24.163Z,6.23
2023-01-17T17:07:53.389Z,5.66
2023-01-17T17:10:25.411Z,5.22
2023-01-17T17:12:54.376Z,4.85
2023-01-17T17:15:23.060Z,4.53
2023-01-17T17:17:51.716Z,4.24
2023-01-17T17:20:20.315Z,4.26
2023-01-17T17:22:52.402Z,6.32
2023-01-17T17:25:20.861Z,8.60
2023-01-17T17:27:49.321Z,8.15
2023-01-17T17:30:18.334Z,7.01
2023-01-17T17:32:47.875Z,6.13
2023-01-17T17:35:16.493Z,5.50
2023-01-17T17:37:45.037Z,4.99
2023-01-17T17:40:13.595Z,4.59
2023-01-17T17:42:43.273Z,4.23
2023-01-17T17:45:12.058Z,4.43
2023-01-17T17:47:40.685Z,6.74
2023-01-17T17:50:09.841Z,8.45
2023-01-17T17:52:38.404Z,7.56
2023-01-17T17:55:07.385Z,6.44
2023-01-17T17:57:35.871Z,5.60
2023-01-17T18:00:05.834Z,4.99
2023-01-17T18:02:35.276Z,4.49
2023-01-17T18:05:04.234Z,4.05
2023-01-17T18:07:33.247Z,3.78
2023-01-17T18:10:01.732Z,5.39
2023-01-17T18:12:30.148Z,7.82
2023-01-17T18:14:58.584Z,7.85
2023-01-17T18:17:27.109Z,6.61
2023-01-17T18:19:55.653Z,5.62
2023-01-17T18:22:24.602Z,4.89
2023-01-17T18:24:53.128Z,4.31
2023-01-17T18:27:21.595Z,3.83
2023-01-17T18:29:50.188Z,3.39
2023-01-17T18:32:19.151Z,3.69
2023-01-17T18:34:47.756Z,6.08
2023-01-17T18:37:16.164Z,7.71
2023-01-17T18:39:44.658Z,6.73
2023-01-17T18:42:13.213Z,5.51
2023-01-17T18:44:41.740Z,4.62
2023-01-17T18:47:11.265Z,3.96
2023-01-17T18:49:39.860Z,3.42
2023-01-17T18:52:09.533Z,2.98
2023-01-17T18:54:38.180Z,3.87
2023-01-17T18:57:06.675Z,6.42
2023-01-17T18:59:35.184Z,7.59
2023-01-17T19:02:04.051Z,6.42
2023-01-17T19:04:34.192Z,5.25
2023-01-17T19:07:02.692Z,4.40
2023-01-17T19:09:32.384Z,3.77
2023-01-17T19:12:00.923Z,3.27
2023-01-17T19:14:29.408Z,3.11
2023-01-17T19:16:57.823Z,5.06
2023-01-17T19:19:26.404Z,7.28
2023-01-17T19:21:54.981Z,6.87
2023-01-17T19:24:23.512Z,5.56
2023-01-17T19:26:53.546Z,4.57
2023-01-17T19:29:22.856Z,3.84
2023-01-17T19:31:51.911Z,3.27
2023-01-17T19:34:20.634Z,2.82
2023-01-17T19:36:49.146Z,3.98
2023-01-17T19:39:17.602Z,6.52
2023-01-17T19:41:46.407Z,7.37
2023-01-17T19:44:15.413Z,6.12
2023-01-17T19:46:45.637Z,4.95
2023-01-17T19:49:16.649Z,4.11
2023-01-17T19:51:45.110Z,3.47
2023-01-17T19:54:15.475Z,3.03
2023-01-17T19:56:43.963Z,4.36
2023-01-17T19:59:13.988Z,6.79
2023-01-17T20:01:42.774Z,7.03
2023-01-17T20:04:13.099Z,5.71
2023-01-17T20:06:41.563Z,4.63
2023-01-17T20:09:10.130Z,3.85
2023-01-17T20:11:39.170Z,3.24
2023-01-17T20:14:08.068Z,3.54
2023-01-17T20:16:37.921Z,5.89
2023-01-17T20:19:06.476Z,7.63
2023-01-17T20:21:34.980Z,6.70
2023-01-17T20:24:03.722Z,5.39
2023-01-17T20:26:36.313Z,4.43
2023-01-17T20:29:10.828Z,3.71
2023-01-17T20:31:41.313Z,3.13
2023-01-17T20:34:12.884Z,3.78
2023-01-17T20:36:42.732Z,6.30
2023-01-17T20:39:13.671Z,7.55
2023-01-17T20:41:44.948Z,6.34
2023-01-17T20:44:15.549Z,5.10
2023-01-17T20:46:45.771Z,4.21
2023-01-17T20:49:18.951Z,3.53
2023-01-17T20:51:47.946Z,3.24
2023-01-17T20:54:18.916Z,5.09
2023-01-17T20:56:48.198Z,7.44
2023-01-17T20:59:22.566Z,7.26
2023-01-17T21:01:52.226Z,5.82
2023-01-17T21:04:26.143Z,4.75
2023-01-17T21:06:55.665Z,3.96
2023-01-17T21:09:24.383Z,3.38
2023-01-17T21:11:54.595Z,4.06
2023-01-17T21:14:23.438Z,6.57
2023-01-17T21:16:52.157Z,7.62
2023-01-17T21:19:21.015Z,6.38
2023-01-17T21:21:50.356Z,5.18
2023-01-17T21:24:19.883Z,4.30
2023-01-17T21:26:51.753Z,3.63
2023-01-17T21:29:20.579Z,3.09
2023-01-17T21:31:49.153Z,4.01
2023-01-17T21:34:17.547Z,6.50
2023-01-17T21:36:46.143Z,7.47
2023-01-17T21:39:17.250Z,6.21
2023-01-17T21:41:48.286Z,4.99
2023-01-17T21:44:20.248Z,4.11
2023-01-17T21:46:55.029Z,3.43
2023-01-17T21:49:24.823Z,2.88
2023-01-17T21:51:53.414Z,3.87
2023-01-17T21:54:43.610Z,6.37
2023-01-17T21:57:33.091Z,7.09
2023-01-17T22:00:01.644Z,5.62
2023-01-17T22:02:30.374Z,4.58
2023-01-17T22:04:59.049Z,3.81
2023-01-17T22:07:29.270Z,3.23
2023-01-17T22:09:57.757Z,3.34
2023-01-17T22:12:26.477Z,5.58
2023-01-17T22:14:55.211Z,7.27
2023-01-17T22:17:23.778Z,6.31
2023-01-17T22:19:52.290Z,5.04
2023-01-17T22:22:20.802Z,4.10
2023-01-17T22:24:49.215Z,3.40
2023-01-17T22:27:17.701Z,2.84
2023-01-17T22:29:46.221Z,2.96
2023-01-17T22:32:14.749Z,5.21
2023-01-17T22:34:43.268Z,7.06
2023-01-17T22:37:11.747Z,6.20
2023-01-17T22:39:40.298Z,4.90
2023-01-17T22:42:08.766Z,3.95
2023-01-17T22:44:37.266Z,3.23
2023-01-17T22:47:05.778Z,2.66
2023-01-17T22:49:34.349Z,2.20
2023-01-17T22:52:02.826Z,3.37
2023-01-17T22:54:31.589Z,5.86
2023-01-17T22:56:59.986Z,6.42
2023-01-17T22:59:28.541Z,5.11
2023-01-17T23:01:57.120Z,3.98
2023-01-17T23:04:26.155Z,3.18
2023-01-17T23:06:54.871Z,2.58
2023-01-17T23:09:23.316Z,2.20
2023-01-17T23:11:54.417Z,3.77
2023-01-17T23:14:51.567Z,6.22
2023-01-17T23:17:40.885Z,6.02
2023-01-17T23:20:11.230Z,4.55
2023-01-17T23:22:40.263Z,3.60
2023-01-17T23:25:13.703Z,2.90
2023-01-17T23:28:03.616Z,2.32
2023-01-17T23:30:37.070Z,1.82
2023-01-17T23:33:08.387Z,3.13
2023-01-17T23:35:42.550Z,5.72
2023-01-17T23:38:31.009Z,6.46
2023-01-17T23:41:26.813Z,4.97
2023-01-17T23:43:57.928Z,3.73
2023-01-17T23:46:27.492Z,3.00
2023-01-17T23:48:56.055Z,2.48
2023-01-17T23:51:24.485Z,3.55
2023-01-17T23:53:57.631Z,6.06
2023-01-17T23:56:26.185Z,6.93
2023-01-17T23:58:54.628Z,5.65
